Barriere, Canada
Current Conditions -  °F | °C
As of 10:57 AM on Friday 31 Oct 2014 (Local Time) from CYKA Reporting Station
Overcast Overcast  
Wind Chill: 52°   Ceiling: 7600
Heat Index: 52°   Visibility: 30mi
Dew Point: 48°   Wind: 8mph
Humidity: 88%   Direction: 80°E
Pressure: 29.68"   Gusts: NA
Location:  51.18°N, 120.13°W
Report Text: CYKA 311757Z 08007KT 30SM FEW011 OVC076 11/09 A2968 RMK SF2AS6 SLP057
Loading
Personal Weather Stations






























Interactive Weather Map
Tropical Storm Tracking
New forecast layout! Learn more

10-Day Weather Forecast

Advertisements
Track Severe Weather on mobile